Tipperary, Ireland
Current Conditions -  °F | °C
As of 2:30 AM on Monday 24 Nov 2014 (Local Time) from EINN Reporting Station
Scattered Clouds Scattered Clouds  
Wind Chill: 30°   Ceiling: Unl
Heat Index: 36°   Visibility: 6mi
Dew Point: 34°   Wind: 7mph
Humidity: 93%   Direction: 120°ESE
Pressure: 30.21"   Gusts: NA
Location:  52.49°N, 8.17°W
Report Text: EINN 240230Z 12006KT 9999 FEW040 SCT200 02/01 Q1023 NOSIG
Loading
Personal Weather Stations






























Interactive Weather Map New forecast layout! Learn more

10-Day Weather Forecast

Advertisements
Track Severe Weather on mobile